Lynn, Alabama
Current Conditions -  °F | °C
As of 5:56 AM on Thursday 18 Dec 2014 (Local Time) from K1M4 Reporting Station
Light Rain Light Rain  
Wind Chill:   Ceiling: 6500
Heat Index:   Visibility: 10mi
Dew Point: -1°   Wind: 0mph
Humidity: 82%   Direction: NA
Pressure: 30.23"   Gusts: NA
Location:  34.05°N, 87.55°W
Report Text: K1M4 181156Z AUTO 00000KT 10SM -RA FEW042 BKN065 02/M01 A3023 RMK AO2 58005 60000 7//// T00221005 10022 20016 RAB55 P0000 SLP245 $
Loading
Personal Weather Stations






























Interactive Weather Map New forecast layout! Learn more

10-Day Weather Forecast

Advertisements
Track Severe Weather on mobile